This is the latest recevied weather packets stored in our database for station/object HS1AXC-1. If no packets are shown the sender has not sent any weather packets the latest 10 day(s).
| Time | Temp. | Humidity | Pressure | Rain* | Wind** | Luminosity | Snow |
|---|---|---|---|---|---|---|---|
| 1777850035 | 33.33° C | 82% | 1010 hPa | - | - | 0 W/m² | - |
| 1777849413 | 33.33° C | 82% | 1010 hPa | - | - | 0 W/m² | - |
| 1777848791 | 33.33° C | 82% | 1010 hPa | - | - | 0 W/m² | - |
| 1777848170 | 33.33° C | 83% | 1009 hPa | - | - | 0 W/m² | - |
| 1777847547 | 33.33° C | 82% | 1009 hPa | - | - | 0 W/m² | - |
| 1777846925 | 33.89° C | 81% | 1009 hPa | - | - | 0 W/m² | - |
| 1777846303 | 33.89° C | 81% | 1009 hPa | - | - | 0 W/m² | - |
| 1777845681 | 33.89° C | 80% | 1009 hPa | - | - | 0 W/m² | - |
| 1777845059 | 33.89° C | 79% | 1009 hPa | - | - | 0 W/m² | - |
| 1777844437 | 35° C | 79% | 1008 hPa | - | - | 0 W/m² | - |
| 1777843823 | 34.44° C | 79% | 1008 hPa | - | - | 0 W/m² | - |
| 1777843220 | 34.44° C | 80% | 1008 hPa | - | - | 0 W/m² | - |
| 1777842420 | 33.89° C | 82% | 1008 hPa | - | - | 0 W/m² | - |
| 1777841798 | 34.44° C | 81% | 1008 hPa | - | - | 0 W/m² | - |
| 1777841176 | 35° C | 78% | 1008 hPa | - | - | 0 W/m² | - |
| 1777840554 | 33.89° C | 81% | 1008 hPa | - | - | 0 W/m² | - |
| 1777839932 | 34.44° C | 79% | 1008 hPa | - | - | 0 W/m² | - |
| 1777839310 | 35° C | 78% | 1008 hPa | - | - | 0 W/m² | - |
| 1777838688 | 35° C | 77% | 1008 hPa | - | - | 0 W/m² | - |
| 1777838103 | 34.44° C | 78% | 1008 hPa | - | - | 0 W/m² | - |
| 1777837481 | 33.89° C | 80% | 1009 hPa | - | - | 0 W/m² | - |
| 1777836859 | 35° C | 75% | 1009 hPa | - | - | 0 W/m² | - |
| 1777836237 | 35° C | 77% | 1009 hPa | - | - | 0 W/m² | - |
| 1777835615 | 34.44° C | 77% | 1009 hPa | - | - | 0 W/m² | - |
| 1777834993 | 35.56° C | 75% | 1009 hPa | - | - | 0 W/m² | - |
* Rain since midnight (hover to see other rain measurements)
** Current wind speed in m/s (hover to see current wind gust speed)